createdAt,value
2022-12-09T00:01:28.844Z,17.33
2022-12-09T00:03:57.163Z,13.38
2022-12-09T00:06:27.564Z,13.18
2022-12-09T00:08:56.676Z,16.23
2022-12-09T00:11:24.769Z,14.20
2022-12-09T00:13:53.800Z,13.77
2022-12-09T00:16:24.672Z,15.35
2022-12-09T00:18:53.282Z,17.38
2022-12-09T00:21:22.761Z,15.27
2022-12-09T00:23:51.417Z,18.65
2022-12-09T00:26:20.754Z,15.60
2022-12-09T00:28:50.446Z,16.33
2022-12-09T00:31:21.410Z,18.95
2022-12-09T00:33:50.791Z,12.82
2022-12-09T00:36:21.981Z,13.27
2022-12-09T00:38:50.188Z,14.07
2022-12-09T00:41:19.184Z,14.52
2022-12-09T00:43:48.315Z,12.07
2022-12-09T00:46:17.112Z,15.07
2022-12-09T00:48:46.547Z,20.00
2022-12-09T00:51:18.124Z,24.40
2022-12-09T00:53:47.327Z,19.75
2022-12-09T00:56:15.290Z,20.05
2022-12-09T00:58:43.045Z,18.10
2022-12-09T01:01:10.729Z,16.42
2022-12-09T01:03:39.492Z,15.55
2022-12-09T01:06:11.927Z,15.60
2022-12-09T01:08:42.869Z,13.40
2022-12-09T01:11:12.637Z,18.67
2022-12-09T01:13:40.277Z,15.40
2022-12-09T01:16:15.219Z,14.25
2022-12-09T01:18:42.840Z,13.20
2022-12-09T01:21:10.599Z,16.05
2022-12-09T01:23:38.281Z,16.38
2022-12-09T01:26:08.124Z,12.77
2022-12-09T01:28:38.890Z,16.17
2022-12-09T01:31:08.100Z,18.67
2022-12-09T01:33:35.730Z,16.70
2022-12-09T01:36:06.035Z,17.92
2022-12-09T01:38:33.849Z,14.90
2022-12-09T01:41:01.569Z,13.80
2022-12-09T01:43:30.582Z,13.38
2022-12-09T01:46:02.544Z,12.70
2022-12-09T01:48:33.720Z,14.32
2022-12-09T01:51:04.146Z,12.65
2022-12-09T01:53:36.041Z,12.48
2022-12-09T01:56:09.454Z,12.43
2022-12-09T01:58:38.910Z,12.52
2022-12-09T02:01:07.274Z,11.00
2022-12-09T02:03:35.379Z,12.82
2022-12-09T02:06:03.243Z,12.55
2022-12-09T02:08:31.260Z,12.13
2022-12-09T02:11:08.459Z,11.98
2022-12-09T02:13:50.849Z,11.73
2022-12-09T02:16:22.812Z,10.23
2022-12-09T02:18:59.030Z,14.82
2022-12-09T02:21:32.440Z,10.85
2022-12-09T02:24:04.762Z,11.80
2022-12-09T02:26:41.926Z,14.20
2022-12-09T02:29:36.215Z,12.48
2022-12-09T02:32:37.074Z,10.32
2022-12-09T02:35:16.293Z,12.88
2022-12-09T02:37:52.135Z,11.02
2022-12-09T02:40:23.706Z,10.02
2022-12-09T02:42:52.043Z,13.98
2022-12-09T02:45:22.605Z,10.88
2022-12-09T02:47:55.557Z,13.73
2022-12-09T02:50:28.430Z,12.77
2022-12-09T02:53:00.069Z,10.47
2022-12-09T02:55:32.647Z,10.70
2022-12-09T02:58:02.174Z,11.60
2022-12-09T03:00:33.255Z,12.23
2022-12-09T03:03:04.106Z,12.05
2022-12-09T03:05:42.231Z,10.82
2022-12-09T03:08:18.236Z,9.18
2022-12-09T03:10:53.545Z,10.02
2022-12-09T03:13:32.745Z,11.60
2022-12-09T03:16:06.081Z,11.25
2022-12-09T03:18:37.170Z,10.77
2022-12-09T03:21:07.359Z,9.40
2022-12-09T03:23:37.543Z,13.20
2022-12-09T03:26:07.568Z,10.68
2022-12-09T03:28:39.553Z,11.18
2022-12-09T03:31:13.929Z,10.68
2022-12-09T03:33:42.844Z,11.95
2022-12-09T03:36:13.916Z,8.82
2022-12-09T03:38:44.536Z,11.13
2022-12-09T03:41:21.274Z,9.20
2022-12-09T03:43:53.678Z,8.75
2022-12-09T03:46:22.959Z,9.37
2022-12-09T03:48:51.312Z,10.98
2022-12-09T03:51:26.034Z,10.23
2022-12-09T03:54:00.887Z,9.80
2022-12-09T03:56:32.869Z,8.50
2022-12-09T03:59:03.441Z,8.52
2022-12-09T04:01:33.561Z,8.80
2022-12-09T04:04:01.680Z,9.38
2022-12-09T04:06:31.049Z,11.45
2022-12-09T04:09:02.389Z,11.45
2022-12-09T04:11:31.594Z,9.05
2022-12-09T04:13:59.673Z,11.02
2022-12-09T04:16:27.749Z,9.55
2022-12-09T04:18:55.894Z,10.02
2022-12-09T04:21:23.541Z,9.65
2022-12-09T04:23:52.727Z,10.50
2022-12-09T04:26:22.004Z,10.90
2022-12-09T04:28:50.075Z,12.32
2022-12-09T04:31:19.726Z,10.13
2022-12-09T04:33:48.250Z,11.73
2022-12-09T04:36:18.096Z,11.07
2022-12-09T04:38:46.471Z,9.60
2022-12-09T04:41:16.224Z,12.52
2022-12-09T04:43:44.145Z,10.43
2022-12-09T04:46:13.854Z,10.93
2022-12-09T04:48:41.859Z,8.80
2022-12-09T04:51:10.518Z,10.15
2022-12-09T04:53:40.163Z,13.35
2022-12-09T04:56:12.075Z,8.60
2022-12-09T04:58:41.726Z,9.68
2022-12-09T05:01:10.891Z,12.23
2022-12-09T05:03:39.881Z,9.88
2022-12-09T05:06:09.608Z,7.95
2022-12-09T05:08:37.657Z,8.75
2022-12-09T05:11:06.381Z,8.02
2022-12-09T05:13:34.792Z,8.50
2022-12-09T05:16:10.617Z,10.45
2022-12-09T05:18:41.834Z,7.05
2022-12-09T05:21:13.683Z,8.40
2022-12-09T05:23:41.773Z,11.02
2022-12-09T05:26:15.380Z,9.05
2022-12-09T05:28:43.795Z,8.65
2022-12-09T05:31:15.427Z,9.07
2022-12-09T05:33:43.446Z,7.60
2022-12-09T05:36:12.410Z,7.63
2022-12-09T05:38:41.133Z,12.27
2022-12-09T05:41:09.166Z,10.65
2022-12-09T05:43:37.733Z,6.95
2022-12-09T05:46:07.815Z,8.32
2022-12-09T05:48:38.276Z,7.47
2022-12-09T05:51:08.694Z,9.73
2022-12-09T05:53:37.934Z,8.70
2022-12-09T05:56:06.723Z,9.23
2022-12-09T05:58:34.955Z,8.20
2022-12-09T06:01:05.734Z,9.07
2022-12-09T06:03:34.290Z,9.27
2022-12-09T06:06:07.503Z,12.02
2022-12-09T06:08:35.567Z,9.45
2022-12-09T06:11:03.461Z,8.38
2022-12-09T06:13:32.061Z,9.05
2022-12-09T06:16:05.232Z,8.00
2022-12-09T06:21:05.457Z,9.55
2022-12-09T06:23:36.015Z,9.38
2022-12-09T06:26:04.160Z,9.70
2022-12-09T06:28:32.615Z,10.88
2022-12-09T06:31:00.874Z,11.98
2022-12-09T06:33:53.770Z,9.60
2022-12-09T06:36:16.861Z,10.23
2022-12-09T06:38:46.133Z,12.10
2022-12-09T06:41:15.632Z,9.63
2022-12-09T06:43:43.475Z,10.57
2022-12-09T06:46:15.449Z,9.52
2022-12-09T06:48:43.749Z,9.07
2022-12-09T06:51:12.273Z,8.35
2022-12-09T06:53:40.258Z,12.52
2022-12-09T06:56:12.742Z,10.00
2022-12-09T06:58:42.255Z,10.15
2022-12-09T07:01:13.783Z,16.25
2022-12-09T07:03:42.867Z,10.57
2022-12-09T07:06:21.946Z,17.05
2022-12-09T07:08:50.152Z,17.42
2022-12-09T07:11:19.448Z,17.30
2022-12-09T07:13:47.271Z,15.35
2022-12-09T07:16:15.079Z,15.68
2022-12-09T07:18:43.088Z,11.48
2022-12-09T07:21:15.719Z,11.80
2022-12-09T07:23:43.628Z,12.75
2022-12-09T07:26:11.877Z,16.77
2022-12-09T07:28:42.990Z,15.95
2022-12-09T07:31:19.278Z,11.73
2022-12-09T07:33:47.571Z,11.48
2022-12-09T07:36:20.732Z,12.32
2022-12-09T07:38:49.231Z,12.02
2022-12-09T07:41:19.439Z,11.45
2022-12-09T07:43:49.276Z,11.80
2022-12-09T07:46:19.199Z,14.18
2022-12-09T07:48:48.041Z,12.02
2022-12-09T07:51:16.867Z,11.43
2022-12-09T07:53:44.688Z,10.20
2022-12-09T07:56:14.755Z,11.93
2022-12-09T07:58:43.881Z,17.40
2022-12-09T08:01:14.802Z,22.55
2022-12-09T08:03:43.543Z,22.48
2022-12-09T08:06:13.979Z,16.52
2022-12-09T08:08:42.083Z,17.75
2022-12-09T08:11:11.969Z,17.90
2022-12-09T08:13:42.272Z,15.70
2022-12-09T08:16:11.919Z,18.50
2022-12-09T08:18:43.060Z,21.55
2022-12-09T08:21:14.155Z,15.10
2022-12-09T08:23:42.052Z,17.42
2022-12-09T08:26:11.466Z,14.75
2022-12-09T08:28:39.679Z,14.52
2022-12-09T08:31:09.232Z,16.13
2022-12-09T08:33:37.410Z,16.77
2022-12-09T08:36:11.620Z,17.15
2022-12-09T08:38:40.019Z,17.27
2022-12-09T08:41:12.627Z,18.75
2022-12-09T08:43:41.361Z,16.23
2022-12-09T08:46:09.689Z,15.50
2022-12-09T08:48:38.928Z,16.30
2022-12-09T08:51:09.195Z,17.73
2022-12-09T08:53:37.114Z,17.98
2022-12-09T08:56:10.228Z,16.48
2022-12-09T09:01:06.716Z,14.85
2022-12-09T09:03:35.400Z,16.92
2022-12-09T09:06:09.508Z,14.27
2022-12-09T09:08:40.997Z,13.75
2022-12-09T09:11:13.391Z,13.35
2022-12-09T09:13:42.850Z,14.03
2022-12-09T09:16:12.433Z,12.57
2022-12-09T09:18:41.979Z,15.35
2022-12-09T09:21:12.478Z,12.13
2022-12-09T09:23:42.990Z,14.00
2022-12-09T09:26:12.423Z,14.07
2022-12-09T09:28:40.626Z,13.65
2022-12-09T09:31:10.230Z,13.65
2022-12-09T09:33:38.137Z,12.73
2022-12-09T09:36:10.490Z,11.65
2022-12-09T09:38:39.323Z,14.15
2022-12-09T09:41:21.708Z,13.95
2022-12-09T09:43:49.927Z,13.82
2022-12-09T09:46:21.655Z,14.88
2022-12-09T09:48:51.962Z,15.60
2022-12-09T09:51:22.084Z,15.68
2022-12-09T09:53:53.273Z,34.28
2022-12-09T09:56:29.214Z,18.45
2022-12-09T09:59:06.653Z,25.67
2022-12-09T10:01:38.048Z,19.73
2022-12-09T10:04:15.565Z,18.05
2022-12-09T10:06:48.333Z,17.25
2022-12-09T10:09:22.870Z,14.38
2022-12-09T10:12:01.164Z,16.50
2022-12-09T10:14:41.038Z,24.60
2022-12-09T10:17:24.152Z,24.33
2022-12-09T10:19:56.884Z,27.30
2022-12-09T10:22:29.922Z,14.45
2022-12-09T10:24:59.851Z,18.30
2022-12-09T10:27:34.932Z,18.23
2022-12-09T10:30:05.677Z,19.27
2022-12-09T10:32:36.605Z,19.65
2022-12-09T10:35:15.435Z,18.27
2022-12-09T10:37:43.759Z,19.45
2022-12-09T10:40:25.654Z,21.52
2022-12-09T10:43:14.056Z,17.40
2022-12-09T10:48:38.725Z,16.50
2022-12-09T10:51:12.251Z,16.90
2022-12-09T10:56:19.268Z,18.45
2022-12-09T10:58:48.690Z,17.52
2022-12-09T11:01:17.417Z,17.20
2022-12-09T11:03:50.052Z,14.20
2022-12-09T11:06:26.010Z,16.85
2022-12-09T11:08:57.714Z,15.43
2022-12-09T11:11:41.190Z,15.55
2022-12-09T11:14:25.721Z,14.93
2022-12-09T11:16:55.553Z,17.30
2022-12-09T11:19:35.132Z,16.67
2022-12-09T11:22:24.017Z,15.77
2022-12-09T11:24:56.519Z,14.85
2022-12-09T11:27:30.408Z,13.23
2022-12-09T11:30:13.976Z,15.43
2022-12-09T11:32:56.680Z,16.27
2022-12-09T11:35:31.237Z,9.48
2022-12-09T11:38:02.165Z,13.52
2022-12-09T11:40:30.755Z,13.55
2022-12-09T11:42:58.663Z,13.50
2022-12-09T11:45:31.634Z,11.85
2022-12-09T11:48:30.297Z,12.18
2022-12-09T11:51:02.254Z,12.45
2022-12-09T11:53:31.306Z,12.88
2022-12-09T11:56:05.367Z,13.50
2022-12-09T11:58:41.809Z,13.13
2022-12-09T12:01:14.128Z,13.68
2022-12-09T12:03:47.357Z,11.85
2022-12-09T12:06:21.164Z,17.63
2022-12-09T12:08:52.346Z,16.88
2022-12-09T12:11:36.977Z,14.73
2022-12-09T12:14:13.701Z,15.73
2022-12-09T12:16:51.417Z,15.48
2022-12-09T12:19:25.566Z,13.98
2022-12-09T12:22:24.328Z,16.33
2022-12-09T12:25:06.284Z,14.80
2022-12-09T12:27:47.992Z,10.27
2022-12-09T12:30:19.057Z,13.18
2022-12-09T12:33:52.967Z,14.05
2022-12-09T12:35:59.962Z,15.25
2022-12-09T12:38:36.989Z,14.77
2022-12-09T12:41:12.930Z,14.35
2022-12-09T12:44:12.836Z,14.52
2022-12-09T12:46:54.282Z,18.63
2022-12-09T12:49:52.251Z,23.05
2022-12-09T12:55:44.660Z,13.00
2022-12-09T12:58:17.940Z,14.15
2022-12-09T13:00:58.544Z,15.88
2022-12-09T13:03:30.789Z,15.13
2022-12-09T13:06:00.073Z,14.98
2022-12-09T13:08:34.216Z,13.05
2022-12-09T13:11:08.162Z,13.13
2022-12-09T13:13:39.549Z,15.05
2022-12-09T13:16:16.402Z,16.05
2022-12-09T13:18:45.301Z,13.40
2022-12-09T13:21:15.216Z,15.05
2022-12-09T13:23:57.299Z,13.93
2022-12-09T13:26:32.384Z,14.82
2022-12-09T13:29:06.890Z,13.75
2022-12-09T13:31:37.331Z,16.73
2022-12-09T13:34:21.203Z,18.13
2022-12-09T13:36:50.410Z,13.85
2022-12-09T13:39:51.313Z,15.85
2022-12-09T13:42:52.592Z,15.20
2022-12-09T13:45:27.622Z,13.65
2022-12-09T13:47:58.076Z,13.15
2022-12-09T13:50:35.443Z,14.73
2022-12-09T13:53:07.206Z,16.17
2022-12-09T13:55:48.616Z,13.90
2022-12-09T13:59:04.808Z,16.23
2022-12-09T14:01:37.253Z,14.30
2022-12-09T14:04:13.562Z,14.87
2022-12-09T14:06:52.617Z,17.30
2022-12-09T14:09:33.388Z,15.30
2022-12-09T14:12:03.167Z,14.40
2022-12-09T14:14:54.938Z,17.90
2022-12-09T14:17:59.871Z,21.27
2022-12-09T14:20:33.552Z,21.65
2022-12-09T14:23:20.368Z,21.50
2022-12-09T14:26:04.465Z,20.52
2022-12-09T14:28:52.923Z,19.15
2022-12-09T14:31:57.875Z,20.33
2022-12-09T14:34:36.511Z,16.17
2022-12-09T14:37:35.381Z,17.00
2022-12-09T14:40:20.441Z,16.85
2022-12-09T14:42:56.297Z,18.05
2022-12-09T14:45:32.325Z,20.88
2022-12-09T14:48:00.899Z,18.15
2022-12-09T14:50:29.885Z,18.52
2022-12-09T14:53:01.501Z,19.75
2022-12-09T14:55:31.407Z,16.80
2022-12-09T14:58:02.090Z,16.67
2022-12-09T15:00:35.487Z,15.20
2022-12-09T15:05:56.931Z,15.63
2022-12-09T15:08:32.700Z,15.63
2022-12-09T15:11:01.508Z,16.40
2022-12-09T15:13:34.451Z,14.82
2022-12-09T15:16:02.468Z,14.00
2022-12-09T15:18:39.940Z,14.98
2022-12-09T15:21:08.569Z,16.80
2022-12-09T15:23:39.209Z,16.70
2022-12-09T15:26:09.196Z,18.67
2022-12-09T15:28:38.446Z,14.63
2022-12-09T15:31:08.290Z,16.20
2022-12-09T15:33:41.306Z,16.00
2022-12-09T15:36:12.431Z,18.38
2022-12-09T15:38:45.494Z,18.80
2022-12-09T15:41:27.346Z,16.83
2022-12-09T15:44:00.875Z,14.45
2022-12-09T15:46:30.992Z,16.05
2022-12-09T15:49:01.875Z,16.30
2022-12-09T15:51:30.137Z,14.40
2022-12-09T15:54:01.388Z,17.63
2022-12-09T15:56:35.599Z,15.35
2022-12-09T15:59:10.941Z,17.75
2022-12-09T16:01:39.098Z,19.42
2022-12-09T16:04:08.040Z,18.83
2022-12-09T16:06:37.758Z,17.23
2022-12-09T16:09:13.254Z,17.75
2022-12-09T16:11:42.763Z,18.95
2022-12-09T16:14:12.377Z,16.90
2022-12-09T16:16:47.319Z,16.83
2022-12-09T16:19:26.620Z,16.13
2022-12-09T16:21:55.970Z,17.40
2022-12-09T16:24:23.817Z,15.95
2022-12-09T16:26:53.710Z,14.80
2022-12-09T16:29:27.265Z,15.13
2022-12-09T16:32:21.595Z,17.20
2022-12-09T16:34:50.921Z,18.52
2022-12-09T16:37:30.538Z,18.88
2022-12-09T16:39:59.506Z,17.80
2022-12-09T16:42:35.205Z,20.35
2022-12-09T16:45:25.270Z,17.48
2022-12-09T16:47:56.823Z,16.52
2022-12-09T16:50:28.784Z,17.05
2022-12-09T16:52:56.525Z,16.20
2022-12-09T16:55:25.807Z,15.38
2022-12-09T16:57:54.580Z,19.00
2022-12-09T17:00:24.062Z,20.33
2022-12-09T17:02:54.309Z,15.98
2022-12-09T17:05:21.845Z,21.40
2022-12-09T17:07:49.503Z,18.40
2022-12-09T17:10:17.901Z,17.50
2022-12-09T17:12:45.992Z,16.45
2022-12-09T17:15:15.492Z,16.00
2022-12-09T17:17:48.430Z,16.15
2022-12-09T17:22:44.637Z,15.40
2022-12-09T17:25:12.398Z,15.13
2022-12-09T17:27:39.927Z,16.40
2022-12-09T17:30:09.002Z,12.68
2022-12-09T17:32:37.583Z,15.25
2022-12-09T17:35:12.299Z,15.95
2022-12-09T17:37:40.253Z,13.80
2022-12-09T17:40:08.756Z,13.75
2022-12-09T17:42:36.479Z,19.58
2022-12-09T17:45:04.718Z,18.13
2022-12-09T17:47:32.577Z,16.52
2022-12-09T17:50:01.182Z,14.93
2022-12-09T17:52:30.120Z,18.63
2022-12-09T17:54:57.656Z,15.48
2022-12-09T17:57:25.210Z,17.52
2022-12-09T17:59:52.797Z,17.52
2022-12-09T18:02:20.623Z,16.98
2022-12-09T18:04:48.234Z,19.65
2022-12-09T18:07:15.861Z,16.75
2022-12-09T18:09:47.567Z,16.67
2022-12-09T18:12:18.949Z,15.77
2022-12-09T18:14:46.494Z,14.98
2022-12-09T18:17:14.044Z,15.98
2022-12-09T18:19:41.576Z,14.07
2022-12-09T18:22:09.123Z,14.82
2022-12-09T18:24:36.759Z,17.90
2022-12-09T18:27:05.667Z,16.58
2022-12-09T18:29:33.850Z,16.67
2022-12-09T18:32:02.094Z,15.85
2022-12-09T18:34:32.286Z,17.80
2022-12-09T18:37:00.100Z,19.15
2022-12-09T18:39:27.669Z,18.63
2022-12-09T18:41:55.296Z,18.23
2022-12-09T18:44:24.199Z,18.45
2022-12-09T18:46:51.815Z,30.05
2022-12-09T18:49:21.462Z,17.90
2022-12-09T18:51:50.833Z,19.85
2022-12-09T18:54:22.625Z,17.60
2022-12-09T18:56:50.634Z,19.85
2022-12-09T18:59:19.253Z,22.40
2022-12-09T19:01:49.358Z,20.88
2022-12-09T19:04:18.882Z,22.88
2022-12-09T19:06:48.732Z,25.40
2022-12-09T19:09:20.223Z,30.05
2022-12-09T19:11:49.458Z,32.78
2022-12-09T19:14:19.018Z,31.27
2022-12-09T19:16:49.067Z,31.45
2022-12-09T19:19:19.315Z,30.65
2022-12-09T19:21:47.080Z,27.73
2022-12-09T19:24:16.596Z,19.80
2022-12-09T19:26:44.571Z,24.13
2022-12-09T19:29:13.292Z,24.85
2022-12-09T19:31:43.016Z,24.75
2022-12-09T19:34:15.251Z,27.27
2022-12-09T19:36:43.760Z,26.88
2022-12-09T19:39:13.629Z,26.40
2022-12-09T19:41:41.883Z,25.92
2022-12-09T19:44:11.758Z,25.17
2022-12-09T19:46:40.645Z,25.58
2022-12-09T19:49:08.580Z,25.17
2022-12-09T19:51:37.483Z,29.50
2022-12-09T19:54:05.413Z,26.58
2022-12-09T19:56:32.992Z,29.52
2022-12-09T19:59:00.968Z,28.02
2022-12-09T20:01:30.217Z,23.27
2022-12-09T20:04:08.828Z,23.08
2022-12-09T20:06:48.516Z,20.48
2022-12-09T20:09:23.815Z,19.83
2022-12-09T20:11:51.528Z,19.15
2022-12-09T20:14:19.535Z,18.52
2022-12-09T20:16:47.167Z,20.10
2022-12-09T20:19:14.839Z,21.77
2022-12-09T20:21:42.544Z,21.65
2022-12-09T20:24:11.577Z,23.92
2022-12-09T20:26:39.628Z,24.17
2022-12-09T20:29:10.361Z,23.48
2022-12-09T20:31:39.223Z,26.52
2022-12-09T20:34:08.279Z,22.77
2022-12-09T20:36:37.768Z,26.15
2022-12-09T20:39:14.867Z,24.83
2022-12-09T20:41:44.579Z,36.08
2022-12-09T20:44:13.817Z,34.08
2022-12-09T20:46:42.542Z,24.27
2022-12-09T20:49:10.843Z,21.85
2022-12-09T20:51:40.500Z,25.58
2022-12-09T20:54:08.956Z,23.73
2022-12-09T20:56:36.766Z,24.73
2022-12-09T20:59:06.682Z,20.10
2022-12-09T21:01:36.109Z,21.58
2022-12-09T21:04:05.730Z,22.60
2022-12-09T21:06:35.187Z,21.50
2022-12-09T21:09:03.899Z,21.27
2022-12-09T21:11:32.401Z,22.42
2022-12-09T21:14:03.250Z,21.95
2022-12-09T21:16:34.628Z,19.50
2022-12-09T21:19:07.152Z,22.35
2022-12-09T21:21:40.143Z,23.30
2022-12-09T21:24:10.182Z,22.38
2022-12-09T21:26:37.940Z,18.88
2022-12-09T21:29:05.582Z,21.17
2022-12-09T21:31:36.304Z,19.95
2022-12-09T21:34:06.038Z,42.85
2022-12-09T21:36:35.194Z,40.10
2022-12-09T21:39:03.605Z,39.50
2022-12-09T21:41:33.537Z,29.50
2022-12-09T21:44:01.291Z,27.25
2022-12-09T21:46:30.625Z,23.85
2022-12-09T21:49:03.936Z,27.45
2022-12-09T21:51:32.852Z,29.27
2022-12-09T21:54:00.670Z,30.30
2022-12-09T21:56:32.730Z,30.50
2022-12-09T21:59:01.092Z,28.60
2022-12-09T22:01:30.859Z,33.13
2022-12-09T22:04:01.817Z,27.85
2022-12-09T22:06:30.382Z,25.90
2022-12-09T22:08:59.577Z,25.13
2022-12-09T22:11:29.701Z,29.80
2022-12-09T22:13:58.732Z,27.17
2022-12-09T22:16:31.004Z,27.77
2022-12-09T22:19:01.944Z,28.20
2022-12-09T22:21:33.533Z,26.33
2022-12-09T22:24:03.976Z,24.52
2022-12-09T22:26:32.333Z,24.35
2022-12-09T22:29:00.277Z,25.10
2022-12-09T22:31:30.479Z,25.65
2022-12-09T22:34:03.037Z,28.42
2022-12-09T22:36:31.246Z,19.05
2022-12-09T22:38:58.925Z,25.65
2022-12-09T22:41:28.460Z,23.65
2022-12-09T22:43:57.308Z,22.20
2022-12-09T22:46:27.507Z,26.08
2022-12-09T22:48:56.272Z,25.77
2022-12-09T22:51:27.684Z,23.02
2022-12-09T22:53:57.162Z,24.15
2022-12-09T22:56:26.071Z,24.55
2022-12-09T22:58:54.259Z,24.40
2022-12-09T23:01:23.488Z,20.17
2022-12-09T23:03:51.264Z,21.70
2022-12-09T23:06:19.535Z,24.55
2022-12-09T23:08:49.238Z,22.58
2022-12-09T23:11:18.529Z,22.40
2022-12-09T23:13:46.854Z,24.70
2022-12-09T23:16:16.750Z,20.30
2022-12-09T23:18:44.423Z,22.90
2022-12-09T23:21:13.872Z,25.65
2022-12-09T23:23:43.620Z,24.75
2022-12-09T23:26:14.112Z,53.33
2022-12-09T23:28:44.815Z,29.85
2022-12-09T23:31:14.575Z,23.55
2022-12-09T23:33:44.040Z,24.73
2022-12-09T23:36:14.976Z,22.35
2022-12-09T23:38:43.332Z,23.88
2022-12-09T23:41:13.079Z,27.27
2022-12-09T23:43:40.816Z,24.73
2022-12-09T23:46:15.427Z,22.48
2022-12-09T23:48:44.041Z,21.83
2022-12-09T23:51:12.472Z,22.13
2022-12-09T23:53:41.567Z,24.73
2022-12-09T23:56:13.337Z,24.50
2022-12-09T23:58:41.781Z,26.10
